Powell, WY (82435)

11:59 AM MDT on October 20, 2014 (GMT -0600)
Crestview Estates | Change Station
CLOSE
Current Station
Personal Weather Station
Location: Powell, WY
Elevation: 1373 m
Nearby Weather Stations

Elev 1373 m 44.75 °N, 108.82 °W | Updated 3 seconds ago

Clear
Clear
16.2 °C
Feels Like 16.2 °C
N
0.0
Wind Variable Wind from North
Gusts 0.0 km/h

Today
High -- | Low -- °C
--% Chance of Precip.
Yesterday
High -- | Low -- °C
Precip. -- mm
7:37 AM 6:22 PM
Waning Crescent, 10% visible
Pressure 1015 hPa
Visibility 16.1 kilometers
Clouds Clear
Dew Point -2 °C
Humidity 28%
Rainfall 0 mm
Snow Depth Not available.
UV 4 out of 12
Pollen 2.70 out of 12
Air Quality Not available.
Flu Activity Sporadic
METAR KGEY 201753Z AUTO 18004KT 10SM CLR 16/00 A3001 RMK AO2 SLP154 T01560000 10161 20006 58008

More Conditions Fewer Conditions

Pressure 1015 hPa
Visibility 16.1 kilometers
Clouds Clear
Dew Point -2 °C
Humidity 28%
Rainfall 0 mm
Snow Depth Not available.
UV 4 out of 12
Pollen 2.70 out of 12
Air Quality Not available.
Flu Activity Sporadic
METAR KGEY 201753Z AUTO 18004KT 10SM CLR 16/00 A3001 RMK AO2 SLP154 T01560000 10161 20006 58008

More Conditions Fewer Conditions

10-Day Weather Forecast

Almanac

Astronomy

Oct. 20, 2014 Rise Set
Actual Time 7:37 AM MDT 6:22 PM MDT
Civil Twilight 7:07 AM MDT 6:51 PM MDT
Nautical Twilight 6:33 AM MDT 7:25 PM MDT
Astronomical Twilight 5:59 AM MDT 7:59 PM MDT
Moon 4:21 AM MDT 4:52 PM MDT
Length of Visible Light 11h 44m
Length of Day
10h 44m
Waning Crescent, 10% of the Moon is Illuminated
Today
Waning Crescent
Oct 23
New
Oct 30
First Quarter
Nov 6
Full
Nov 14
Last Quarter

Today's Extremes

State Highs State Lows

Community

WunderPhotos

Upload Photos

1,763,446 photos uploaded!

WunderBlogs® & News

Nearby

Snow Depth

Station Depth Elevation
Two Ocean Plateau 0 in 9240 ft
Togwotee Pass 0 in 7980 ft
Base Camp 0 in 7030 ft
Gros Ventre Summit 1 in 8750 ft
Kendall R.S. 1 in 7740 ft

Earthquake Activity

City Distance Mag. Time & Date
No recent earthquake activity has been reported nearby.
Minimum magnitude displayed is 2.5.

Coastal Water Temperatures

Place Temperature
No Stations Reporting

Nearby Weather Stations